Time;durP1;ratioP1;P1;durP2;ratioP2;P2;SDS_P1;SDS_P2;PMS_P1;PMS_P2;Temp;Humidity;BMP_temperature;BMP_pressure;BME280_temperature;BME280_humidity;BME280_pressure;Samples;Min_cycle;Max_cycle;Signal;HPM_P1;HPM_P2
2022/06/23 00:00:06;;;;;;;0.00;0.00;;;23.50;99.90;;;;;;4989862;28;20461;-74
2022/06/23 00:02:35;;;;;;;0.00;0.00;;;23.60;99.90;;;;;;4954113;29;20359;-73
2022/06/23 00:05:13;;;;;;;0.00;0.00;;;23.70;99.90;;;;;;4954045;29;20034;-73
2022/06/23 00:07:44;;;;;;;0.00;0.00;;;23.60;99.90;;;;;;4966799;28;20477;-74
2022/06/23 00:10:38;;;;;;;0.00;0.00;;;23.60;99.90;;;;;;4989677;28;20026;-74
2022/06/23 00:13:16;;;;;;;0.00;0.00;;;23.40;99.90;;;;;;4986263;28;20145;-73
2022/06/23 00:15:44;;;;;;;0.00;0.00;;;23.50;99.90;;;;;;4962385;28;20027;-73
2022/06/23 00:18:32;;;;;;;0.00;0.00;;;23.60;99.90;;;;;;4972324;28;20034;-72
2022/06/23 00:21:08;;;;;;;0.00;0.00;;;23.90;99.90;;;;;;4969892;28;20042;-73
2022/06/23 00:23:41;;;;;;;0.00;0.00;;;24.30;99.90;;;;;;4967490;28;20038;-71
2022/06/23 00:26:33;;;;;;;0.00;0.00;;;24.60;99.90;;;;;;4975521;28;20042;-73
2022/06/23 00:29:11;;;;;;;0.00;0.00;;;24.90;99.90;;;;;;4972929;28;20027;-73
2022/06/23 00:31:53;;;;;;;0.00;0.00;;;25.10;99.90;;;;;;4971997;28;20165;-73
2022/06/23 00:34:24;;;;;;;0.00;0.00;;;25.30;99.90;;;;;;4970546;28;20074;-74
2022/06/23 00:36:51;;;;;;;0.00;0.00;;;25.60;99.90;;;;;;4975196;28;20030;-73
2022/06/23 00:39:20;;;;;;;0.00;0.00;;;25.90;99.90;;;;;;4971823;28;20109;-73
2022/06/23 00:41:48;;;;;;;0.08;0.08;;;26.20;99.90;;;;;;4974983;28;20033;-73
2022/06/23 00:44:49;;;;;;;0.10;0.10;;;26.10;99.90;;;;;;4977725;28;20453;-73
2022/06/23 00:47:45;;;;;;;0.00;0.00;;;26.50;99.90;;;;;;4971468;28;20031;-73
2022/06/23 00:50:32;;;;;;;0.00;0.00;;;26.80;99.90;;;;;;4944794;28;20077;-74
2022/06/23 00:53:10;;;;;;;0.00;0.00;;;27.30;99.90;;;;;;4992347;28;20022;-74
2022/06/23 00:55:46;;;;;;;0.00;0.00;;;27.80;99.90;;;;;;4973810;28;20078;-73
2022/06/23 00:58:31;;;;;;;0.25;0.25;;;28.30;99.90;;;;;;4985639;28;20026;-73
2022/06/23 01:01:11;;;;;;;0.20;0.20;;;28.60;93.40;;;;;;4974346;28;20113;-73
2022/06/23 01:03:46;;;;;;;0.75;0.75;;;28.70;90.50;;;;;;4989270;28;20041;-73
2022/06/23 01:06:27;;;;;;;0.00;0.00;;;28.70;88.20;;;;;;4979343;28;20061;-74
2022/06/23 01:08:56;;;;;;;0.85;0.85;;;29.10;90.40;;;;;;4977812;28;20041;-74
2022/06/23 01:11:25;;;;;;;0.17;0.17;;;29.70;90.20;;;;;;4976675;28;20030;-74
2022/06/23 01:14:22;;;;;;;0.00;0.00;;;30.40;77.60;;;;;;4972690;28;20497;-73
2022/06/23 01:16:53;;;;;;;0.47;0.47;;;30.50;74.30;;;;;;4975520;28;20027;-73
2022/06/23 01:19:57;;;;;;;0.00;0.00;;;30.40;70.30;;;;;;4974943;28;20019;-74
2022/06/23 01:22:49;;;;;;;0.10;0.10;;;30.40;74.10;;;;;;4980119;28;20085;-74
2022/06/23 01:25:49;;;;;;;0.00;0.00;;;31.00;69.60;;;;;;4992967;28;20029;-73
2022/06/23 01:28:19;;;;;;;0.00;0.00;;;31.20;69.30;;;;;;4977571;28;20105;-73
2022/06/23 01:31:11;;;;;;;0.00;0.00;;;29.80;72.50;;;;;;4985545;28;20069;-73
2022/06/23 01:34:09;;;;;;;0.00;0.00;;;28.60;79.50;;;;;;4986890;28;20026;-73
2022/06/23 01:36:56;;;;;;;0.30;0.25;;;28.90;81.90;;;;;;4948667;28;20375;-73
2022/06/23 01:40:00;;;;;;;0.00;0.00;;;28.90;79.60;;;;;;4981038;28;20023;-73
2022/06/23 01:42:38;;;;;;;0.00;0.00;;;29.50;76.50;;;;;;4974632;28;20037;-72
2022/06/23 01:45:42;;;;;;;0.60;0.57;;;29.40;76.30;;;;;;4980603;28;20109;-72
2022/06/23 01:48:15;;;;;;;0.82;0.77;;;29.30;76.90;;;;;;4972928;28;20490;-73
2022/06/23 01:50:59;;;;;;;0.00;0.00;;;30.00;73.30;;;;;;4974368;28;20039;-72
2022/06/23 01:53:33;;;;;;;0.00;0.00;;;29.30;71.90;;;;;;4980331;28;20038;-74
2022/06/23 01:56:18;;;;;;;1.60;1.55;;;28.90;77.50;;;;;;4979386;28;20141;-73
2022/06/23 01:58:59;;;;;;;0.00;0.00;;;30.30;69.40;;;;;;4978342;28;20478;-74
2022/06/23 02:01:47;;;;;;;1.02;1.02;;;30.90;65.70;;;;;;4969993;28;20022;-74
2022/06/23 02:04:33;;;;;;;4.30;3.45;;;30.40;67.50;;;;;;4979307;28;20026;-72
2022/06/23 02:07:19;;;;;;;0.00;0.00;;;31.00;63.70;;;;;;4976213;28;20034;-73
2022/06/23 02:09:49;;;;;;;0.10;0.10;;;30.70;64.80;;;;;;4978210;28;20163;-73
2022/06/23 02:12:56;;;;;;;0.35;0.35;;;31.10;63.80;;;;;;4976959;28;20477;-73
2022/06/23 02:15:34;;;;;;;0.00;0.00;;;31.90;59.90;;;;;;4967659;28;20034;-74
2022/06/23 02:18:17;;;;;;;0.30;0.30;;;32.30;58.00;;;;;;4966097;28;20046;-74
2022/06/23 02:20:58;;;;;;;0.00;0.00;;;32.90;55.70;;;;;;4968993;28;20034;-73
2022/06/23 02:23:45;;;;;;;0.00;0.00;;;33.00;53.20;;;;;;4966707;28;20097;-74
2022/06/23 02:26:30;;;;;;;0.00;0.00;;;31.90;55.70;;;;;;4968035;28;20102;-73
2022/06/23 02:29:02;;;;;;;0.00;0.00;;;31.70;56.30;;;;;;4966253;28;20038;-74
2022/06/23 02:31:57;;;;;;;0.00;0.00;;;32.30;55.20;;;;;;4966811;28;20043;-73
2022/06/23 02:34:52;;;;;;;2.22;0.25;;;32.70;54.20;;;;;;4940474;28;20047;-74
2022/06/23 02:37:45;;;;;;;0.00;0.00;;;33.10;53.30;;;;;;4933057;28;20082;-75
2022/06/23 02:40:25;;;;;;;0.00;0.00;;;31.80;55.50;;;;;;4965775;28;20397;-74
2022/06/23 02:42:57;;;;;;;0.10;0.10;;;32.10;55.30;;;;;;4969299;28;20113;-74
2022/06/23 02:45:23;;;;;;;0.00;0.00;;;31.80;55.10;;;;;;4968778;28;20101;-74
2022/06/23 02:47:55;;;;;;;0.10;0.10;;;32.40;55.40;;;;;;4968337;28;20105;-73
2022/06/23 02:50:50;;;;;;;0.00;0.00;;;33.50;52.30;;;;;;4969009;28;20037;-74
2022/06/23 02:54:04;;;;;;;0.00;0.00;;;34.30;50.20;;;;;;4960079;28;20434;-74
2022/06/23 02:56:36;;;;;;;0.00;0.00;;;34.90;48.70;;;;;;4963162;28;20063;-74
2022/06/23 02:59:25;;;;;;;0.00;0.00;;;34.60;47.90;;;;;;4965659;28;20035;-74
2022/06/23 03:02:21;;;;;;;0.00;0.00;;;34.80;47.80;;;;;;4965519;28;20039;-74
2022/06/23 03:04:56;;;;;;;0.82;0.65;;;34.80;46.70;;;;;;4938965;28;20046;-75
2022/06/23 03:07:45;;;;;;;0.10;0.10;;;34.10;48.00;;;;;;4942536;28;20041;-74
2022/06/23 03:10:35;;;;;;;0.00;0.00;;;33.90;49.00;;;;;;4949142;28;20043;-73
2022/06/23 03:13:26;;;;;;;0.00;0.00;;;34.40;48.00;;;;;;4966903;28;20116;-75
2022/06/23 03:16:28;;;;;;;5.88;5.57;;;34.30;48.00;;;;;;4963813;28;20479;-75
2022/06/23 03:19:05;;;;;;;0.00;0.00;;;33.50;49.10;;;;;;4968359;28;20035;-73
2022/06/23 03:21:46;;;;;;;0.28;0.28;;;33.80;49.10;;;;;;4959163;28;20087;-74
2022/06/23 03:24:25;;;;;;;0.82;0.82;;;34.00;49.00;;;;;;4966896;28;20035;-73
2022/06/23 03:27:00;;;;;;;0.00;0.00;;;32.50;51.90;;;;;;4966948;28;20033;-73
2022/06/23 03:29:31;;;;;;;0.00;0.00;;;31.10;55.90;;;;;;4963352;28;20535;-74
2022/06/23 03:32:27;;;;;;;0.00;0.00;;;31.70;54.80;;;;;;4967648;28;20129;-74
2022/06/23 03:35:19;;;;;;;0.00;0.00;;;31.60;55.70;;;;;;4964996;28;20051;-73
2022/06/23 03:38:12;;;;;;;0.00;0.00;;;32.30;54.40;;;;;;4966324;28;20553;-74
2022/06/23 03:43:58;;;;;;;0.40;0.10;;;32.60;53.50;;;;;;4965089;28;20536;-73
2022/06/23 03:46:27;;;;;;;0.00;0.00;;;31.60;55.50;;;;;;4964761;28;20377;-73
2022/06/23 03:48:55;;;;;;;0.40;0.40;;;32.10;55.40;;;;;;4965901;28;20062;-73
2022/06/23 03:51:31;;;;;;;0.25;0.25;;;32.10;54.50;;;;;;4967729;28;20031;-74
2022/06/23 03:54:02;;;;;;;0.00;0.00;;;32.20;53.70;;;;;;4965692;28;20026;-74
2022/06/23 03:56:36;;;;;;;0.28;0.28;;;32.80;54.00;;;;;;4968378;28;20050;-75
2022/06/23 03:59:13;;;;;;;0.05;0.05;;;32.80;53.10;;;;;;4967503;28;20026;-75
2022/06/23 04:01:56;;;;;;;0.00;0.00;;;32.00;53.00;;;;;;4966318;28;20030;-74
2022/06/23 04:04:48;;;;;;;0.00;0.00;;;31.00;53.60;;;;;;4963911;28;20027;-74
2022/06/23 04:07:43;;;;;;;0.00;0.00;;;29.90;55.80;;;;;;4967951;28;20386;-74
2022/06/23 04:10:13;;;;;;;0.00;0.00;;;29.80;56.80;;;;;;4950485;28;20045;-77
2022/06/23 04:12:45;;;;;;;0.00;0.00;;;29.50;57.50;;;;;;4950825;28;20386;-75
2022/06/23 04:15:17;;;;;;;0.00;0.00;;;29.00;58.70;;;;;;4967001;28;20034;-75
2022/06/23 04:18:10;;;;;;;0.08;0.08;;;29.30;59.00;;;;;;4965154;28;20022;-75
2022/06/23 04:20:48;;;;;;;0.00;0.00;;;29.50;58.10;;;;;;4965121;28;20058;-74
2022/06/23 04:23:22;;;;;;;0.00;0.00;;;29.40;57.60;;;;;;4967840;28;20117;-75
2022/06/23 04:25:56;;;;;;;8.88;2.13;;;29.30;57.50;;;;;;4962178;28;20118;-74
2022/06/23 04:28:35;;;;;;;0.00;0.00;;;29.00;58.50;;;;;;4964493;28;20290;-73
2022/06/23 04:31:05;;;;;;;0.00;0.00;;;29.00;59.80;;;;;;4965901;28;20034;-73
2022/06/23 04:33:40;;;;;;;0.73;0.43;;;29.10;60.10;;;;;;4968290;28;20045;-74
2022/06/23 04:36:16;;;;;;;0.00;0.00;;;28.90;60.30;;;;;;4966773;28;20030;-74
2022/06/23 04:39:06;;;;;;;0.22;0.22;;;28.90;61.10;;;;;;4967502;28;20029;-74
2022/06/23 04:41:42;;;;;;;0.05;0.05;;;29.00;61.70;;;;;;4966593;28;20030;-73
2022/06/23 04:44:22;;;;;;;0.88;0.63;;;28.90;62.80;;;;;;4973079;28;20030;-73
2022/06/23 04:46:59;;;;;;;0.55;0.15;;;28.70;64.80;;;;;;4965831;28;20066;-74
2022/06/23 04:49:35;;;;;;;9.50;3.97;;;28.60;64.10;;;;;;4964305;28;20122;-75
2022/06/23 04:52:12;;;;;;;0.22;0.22;;;28.80;63.50;;;;;;4963846;28;20039;-75
2022/06/23 04:54:50;;;;;;;0.52;0.52;;;28.90;63.00;;;;;;4969266;28;20031;-74
2022/06/23 04:57:31;;;;;;;0.35;0.20;;;28.90;64.60;;;;;;4961588;28;20055;-77
2022/06/23 05:00:03;;;;;;;0.15;0.15;;;29.30;63.20;;;;;;4965307;28;20041;-76
2022/06/23 05:02:58;;;;;;;0.20;0.13;;;29.10;64.50;;;;;;4964558;28;20045;-75
2022/06/23 05:05:34;;;;;;;0.00;0.00;;;29.40;62.20;;;;;;4951972;28;20047;-75
2022/06/23 05:08:26;;;;;;;0.10;0.10;;;29.40;62.60;;;;;;4968718;28;20035;-75
2022/06/23 05:11:06;;;;;;;0.00;0.00;;;28.80;63.40;;;;;;4964287;28;20042;-74
2022/06/23 05:13:49;;;;;;;0.00;0.00;;;28.70;64.90;;;;;;4959350;28;20035;-73
2022/06/23 05:16:30;;;;;;;0.47;0.40;;;29.00;64.70;;;;;;4968573;28;20421;-74
2022/06/23 05:19:00;;;;;;;0.00;0.00;;;28.90;64.60;;;;;;4970973;28;20031;-76
2022/06/23 05:21:37;;;;;;;1.17;0.95;;;28.80;64.40;;;;;;4961959;28;20045;-76
2022/06/23 05:24:12;;;;;;;0.00;0.00;;;28.10;65.50;;;;;;4965143;28;20021;-75
2022/06/23 05:27:14;;;;;;;0.35;0.30;;;27.80;66.70;;;;;;4962964;28;20311;-78
2022/06/23 05:29:52;;;;;;;0.03;0.03;;;27.90;67.40;;;;;;4961902;28;20494;-73
2022/06/23 05:32:31;;;;;;;0.00;0.00;;;27.50;71.10;;;;;;4965073;28;21085;-74
2022/06/23 05:35:02;;;;;;;0.00;0.00;;;27.60;71.80;;;;;;4965047;28;20626;-71
2022/06/23 05:37:36;;;;;;;0.00;0.00;;;27.70;70.10;;;;;;4972143;28;20045;-73
2022/06/23 05:40:21;;;;;;;0.45;0.45;;;27.60;70.00;;;;;;4970650;28;20031;-76
2022/06/23 05:42:50;;;;;;;0.00;0.00;;;26.80;73.70;;;;;;4966562;28;20118;-75
2022/06/23 05:45:36;;;;;;;0.57;0.55;;;27.10;74.00;;;;;;4964398;28;20396;-77
2022/06/23 05:48:06;;;;;;;23.55;6.22;;;26.90;75.10;;;;;;4972152;28;20042;-76
2022/06/23 05:50:48;;;;;;;0.00;0.00;;;26.90;76.60;;;;;;4970231;28;20485;-76
2022/06/23 05:53:26;;;;;;;0.38;0.38;;;27.10;78.10;;;;;;4970592;28;20025;-78
2022/06/23 05:56:23;;;;;;;0.00;0.00;;;27.20;77.80;;;;;;4967121;28;20038;-75
2022/06/23 05:59:09;;;;;;;0.05;0.05;;;27.40;75.40;;;;;;4963264;28;20109;-77
2022/06/23 06:01:43;;;;;;;0.00;0.00;;;27.80;76.90;;;;;;4963947;28;20117;-74
2022/06/23 06:04:18;;;;;;;0.00;0.00;;;28.30;74.30;;;;;;4965842;28;20118;-76
2022/06/23 06:06:45;;;;;;;1.70;1.55;;;28.60;72.00;;;;;;4964519;28;20073;-75
2022/06/23 06:12:02;;;;;;;0.10;0.10;;;28.50;73.90;;;;;;4966105;28;20151;-74
2022/06/23 06:14:42;;;;;;;0.60;0.10;;;27.90;72.40;;;;;;4966346;28;20085;-74
2022/06/23 06:17:17;;;;;;;0.08;0.08;;;27.50;73.70;;;;;;4963462;28;20393;-74
2022/06/23 06:19:43;;;;;;;0.15;0.15;;;27.70;73.80;;;;;;4966778;28;20363;-73
2022/06/23 06:22:37;;;;;;;0.00;0.00;;;28.00;72.40;;;;;;4970644;28;20097;-74
2022/06/23 06:25:06;;;;;;;0.38;0.05;;;28.00;74.80;;;;;;4972392;28;20038;-75
2022/06/23 06:27:33;;;;;;;0.00;0.00;;;27.90;74.80;;;;;;4966789;28;20029;-74
2022/06/23 06:30:00;;;;;;;0.00;0.00;;;28.30;74.00;;;;;;4961975;28;20066;-75
2022/06/23 06:32:33;;;;;;;0.00;0.00;;;28.70;71.70;;;;;;4964929;28;20481;-77
2022/06/23 06:35:07;;;;;;;0.00;0.00;;;29.10;69.90;;;;;;4966981;28;20042;-76
2022/06/23 06:37:44;;;;;;;0.00;0.00;;;29.20;70.10;;;;;;4967652;28;20046;-76
2022/06/23 06:40:12;;;;;;;0.00;0.00;;;29.90;68.60;;;;;;4968277;28;20027;-73
2022/06/23 06:42:49;;;;;;;0.63;0.63;;;30.20;67.40;;;;;;4965882;28;20032;-73
2022/06/23 06:45:20;;;;;;;1.77;1.77;;;30.20;66.30;;;;;;4962799;28;20035;-74
2022/06/23 06:47:49;;;;;;;0.00;0.00;;;30.30;66.10;;;;;;4962857;28;20029;-74
2022/06/23 06:50:44;;;;;;;0.00;0.00;;;31.00;64.60;;;;;;4963451;28;20114;-74
2022/06/23 06:53:23;;;;;;;0.00;0.00;;;31.20;64.20;;;;;;4969793;28;20019;-74
2022/06/23 06:56:04;;;;;;;3.15;2.03;;;31.20;64.70;;;;;;4964310;28;20307;-75
2022/06/23 06:58:42;;;;;;;0.75;0.13;;;31.40;62.80;;;;;;4968142;28;20031;-74
2022/06/23 07:01:13;;;;;;;0.80;0.80;;;31.40;62.40;;;;;;4964983;28;20030;-74
2022/06/23 07:03:44;;;;;;;0.28;0.28;;;30.40;64.80;;;;;;4969465;28;20463;-75
2022/06/23 07:06:39;;;;;;;0.00;0.00;;;30.70;63.50;;;;;;4967734;28;20045;-74
2022/06/23 07:09:22;;;;;;;0.00;0.00;;;30.90;63.50;;;;;;4964841;28;20063;-75
2022/06/23 07:12:05;;;;;;;0.00;0.00;;;30.80;63.00;;;;;;4965215;28;20441;-75
2022/06/23 07:15:00;;;;;;;0.00;0.00;;;30.20;64.10;;;;;;4967150;28;20031;-74
2022/06/23 07:17:40;;;;;;;0.57;0.20;;;29.70;66.00;;;;;;4965329;28;20038;-74
2022/06/23 07:20:19;;;;;;;0.00;0.00;;;29.60;66.20;;;;;;4966546;28;20695;-76
2022/06/23 07:22:54;;;;;;;0.00;0.00;;;29.30;67.90;;;;;;4963524;28;20378;-74
2022/06/23 07:25:29;;;;;;;0.00;0.00;;;29.30;68.60;;;;;;4965613;28;20019;-75
2022/06/23 07:28:35;;;;;;;0.00;0.00;;;28.90;70.50;;;;;;4970000;28;20077;-73
2022/06/23 07:31:12;;;;;;;0.00;0.00;;;28.40;73.80;;;;;;4957748;28;20103;-75
2022/06/23 07:33:44;;;;;;;0.65;0.30;;;27.70;76.50;;;;;;4970679;28;20031;-74
2022/06/23 07:36:26;;;;;;;0.00;0.00;;;28.10;76.00;;;;;;4967533;28;20035;-75
2022/06/23 07:39:01;;;;;;;0.00;0.00;;;28.50;75.30;;;;;;4963363;28;20481;-74
2022/06/23 07:41:36;;;;;;;0.10;0.10;;;28.90;72.90;;;;;;4959893;28;20027;-75
2022/06/23 07:44:28;;;;;;;0.00;0.00;;;29.10;70.80;;;;;;4968630;28;20365;-75
2022/06/23 07:46:55;;;;;;;0.00;0.00;;;29.40;69.00;;;;;;4962254;28;20043;-74
2022/06/23 07:49:21;;;;;;;0.00;0.00;;;29.40;67.90;;;;;;4968288;28;20073;-74
2022/06/23 07:51:48;;;;;;;0.00;0.00;;;29.60;67.70;;;;;;4964018;28;20034;-74
2022/06/23 07:54:18;;;;;;;0.00;0.00;;;28.70;74.00;;;;;;4965398;28;20030;-75
2022/06/23 07:56:45;;;;;;;0.20;0.13;;;28.70;71.80;;;;;;4963587;28;20057;-74
2022/06/23 07:59:15;;;;;;;0.00;0.00;;;28.00;73.30;;;;;;4974577;28;20037;-75
2022/06/23 08:02:17;;;;;;;0.00;0.00;;;28.10;73.30;;;;;;4967951;28;20040;-74
2022/06/23 08:05:15;;;;;;;0.22;0.22;;;28.30;71.70;;;;;;4922864;28;20087;-73
2022/06/23 08:07:42;;;;;;;0.75;0.65;;;28.30;73.40;;;;;;4971636;28;20098;-74
2022/06/23 08:10:13;;;;;;;0.15;0.15;;;28.10;72.60;;;;;;4964089;28;20969;-74
2022/06/23 08:12:58;;;;;;;0.10;0.10;;;28.70;71.30;;;;;;4965560;28;20041;-73
2022/06/23 08:18:37;;;;;;;3.95;2.72;;;30.10;65.70;;;;;;4969217;28;20077;-74
2022/06/23 08:21:21;;;;;;;0.80;0.60;;;29.70;66.80;;;;;;4962281;28;20035;-74
2022/06/23 08:24:04;;;;;;;0.22;0.20;;;29.90;67.00;;;;;;4963490;28;20107;-75
2022/06/23 08:26:31;;;;;;;0.00;0.00;;;30.20;65.80;;;;;;4967082;28;20694;-74
2022/06/23 08:29:03;;;;;;;0.00;0.00;;;30.40;68.30;;;;;;4968164;28;20037;-74
2022/06/23 08:31:30;;;;;;;1.73;1.02;;;30.50;64.90;;;;;;4964593;28;20421;-74
2022/06/23 08:33:59;;;;;;;0.30;0.30;;;30.20;66.10;;;;;;4966240;28;20042;-74
2022/06/23 08:36:36;;;;;;;0.00;0.00;;;29.80;65.70;;;;;;4966114;28;20117;-75
2022/06/23 08:39:12;;;;;;;0.00;0.00;;;29.80;66.70;;;;;;4967759;28;20023;-73
2022/06/23 08:41:50;;;;;;;0.17;0.03;;;30.40;65.50;;;;;;4961175;28;20074;-74
2022/06/23 08:44:49;;;;;;;0.15;0.10;;;30.50;63.40;;;;;;4961951;28;20034;-75
2022/06/23 08:47:22;;;;;;;0.00;0.00;;;30.30;61.30;;;;;;4968901;28;20026;-73
2022/06/23 08:49:55;;;;;;;0.20;0.10;;;30.00;62.40;;;;;;4968561;28;20073;-73
2022/06/23 08:52:46;;;;;;;0.05;0.05;;;30.10;64.20;;;;;;4965687;28;20030;-76
2022/06/23 08:55:25;;;;;;;0.08;0.08;;;30.20;63.80;;;;;;4962661;28;20503;-74
2022/06/23 08:58:00;;;;;;;0.00;0.00;;;30.40;63.40;;;;;;4967763;28;20054;-74
2022/06/23 09:00:41;;;;;;;0.00;0.00;;;30.30;62.90;;;;;;4966822;28;20030;-75
2022/06/23 09:03:26;;;;;;;0.00;0.00;;;30.60;62.70;;;;;;4966903;28;20031;-74
2022/06/23 09:06:04;;;;;;;1.80;1.77;;;31.00;61.50;;;;;;4963815;28;20155;-74
2022/06/23 09:08:40;;;;;;;0.00;0.00;;;30.80;61.50;;;;;;4967153;28;20057;-74
2022/06/23 09:11:26;;;;;;;0.00;0.00;;;30.80;60.60;;;;;;4969675;28;20026;-76
2022/06/23 09:14:02;;;;;;;0.00;0.00;;;30.70;63.80;;;;;;4963366;28;20126;-73
2022/06/23 09:16:40;;;;;;;0.10;0.10;;;29.70;67.70;;;;;;4966259;28;20042;-74
2022/06/23 09:19:24;;;;;;;0.00;0.00;;;29.60;67.90;;;;;;4964308;28;20027;-75
2022/06/23 09:22:11;;;;;;;0.00;0.00;;;30.00;68.60;;;;;;4968509;28;20031;-75
2022/06/23 09:24:48;;;;;;;0.00;0.00;;;30.90;63.30;;;;;;4967915;28;20026;-73
2022/06/23 09:27:41;;;;;;;0.00;0.00;;;31.40;62.00;;;;;;4969100;28;22272;-73
2022/06/23 09:30:27;;;;;;;0.00;0.00;;;31.90;59.50;;;;;;4970383;28;20055;-75
2022/06/23 09:33:13;;;;;;;0.00;0.00;;;32.20;58.70;;;;;;4965614;28;20145;-75
2022/06/23 09:36:01;;;;;;;0.00;0.00;;;32.40;56.70;;;;;;4969716;28;20090;-73
2022/06/23 09:39:00;;;;;;;0.00;0.00;;;31.90;56.90;;;;;;4969198;28;20106;-75
2022/06/23 09:41:31;;;;;;;0.08;0.00;;;31.20;58.70;;;;;;4967783;28;20749;-75
2022/06/23 09:44:10;;;;;;;0.00;0.00;;;31.40;58.30;;;;;;4968067;28;20030;-75
2022/06/23 09:46:53;;;;;;;0.00;0.00;;;30.80;59.50;;;;;;4967482;28;20034;-77
2022/06/23 09:49:37;;;;;;;0.00;0.00;;;31.30;60.10;;;;;;4968438;28;20061;-75
2022/06/23 09:52:26;;;;;;;1.75;0.20;;;31.30;59.60;;;;;;4967506;28;20030;-74
2022/06/23 09:55:24;;;;;;;0.05;0.05;;;31.70;58.60;;;;;;4963316;28;20027;-75
2022/06/23 09:58:03;;;;;;;0.00;0.00;;;31.40;59.50;;;;;;4985321;28;20078;-75
2022/06/23 10:00:38;;;;;;;0.00;0.00;;;31.00;59.20;;;;;;4989208;28;20041;-74
2022/06/23 10:03:43;;;;;;;0.00;0.00;;;30.70;60.50;;;;;;4991257;28;20034;-75
2022/06/23 10:06:21;;;;;;;0.00;0.00;;;30.60;61.10;;;;;;4984372;28;20050;-74
2022/06/23 10:08:58;;;;;;;0.00;0.00;;;30.70;62.40;;;;;;4986315;28;20076;-74
2022/06/23 10:11:49;;;;;;;0.20;0.20;;;31.00;60.60;;;;;;4994240;28;20022;-73
2022/06/23 10:14:33;;;;;;;0.00;0.00;;;30.60;60.10;;;;;;4987555;28;21671;-72
2022/06/23 10:17:05;;;;;;;0.00;0.00;;;29.50;64.00;;;;;;4984352;28;20040;-74
2022/06/23 10:19:57;;;;;;;0.00;0.00;;;29.90;65.10;;;;;;4987380;28;20029;-74
2022/06/23 10:22:29;;;;;;;0.85;0.70;;;30.30;63.30;;;;;;4996550;28;20056;-74
2022/06/23 10:25:08;;;;;;;0.03;0.03;;;30.60;63.10;;;;;;4990028;28;20054;-75
2022/06/23 10:28:04;;;;;;;1.02;1.02;;;30.20;64.10;;;;;;4988166;28;20508;-74
2022/06/23 10:30:52;;;;;;;0.00;0.00;;;30.10;64.90;;;;;;4990669;28;20847;-74
2022/06/23 10:33:24;;;;;;;0.00;0.00;;;30.30;64.50;;;;;;4973492;28;20500;-75
2022/06/23 10:36:27;;;;;;;0.00;0.00;;;30.50;61.70;;;;;;4994582;28;20037;-75
2022/06/23 10:39:05;;;;;;;0.00;0.00;;;30.50;61.40;;;;;;4988337;28;20038;-73
2022/06/23 10:41:37;;;;;;;0.00;0.00;;;30.50;63.10;;;;;;4987328;28;20069;-73
2022/06/23 10:44:36;;;;;;;0.00;0.00;;;30.40;63.10;;;;;;4987579;28;20101;-73
2022/06/23 10:47:21;;;;;;;0.00;0.00;;;30.50;61.00;;;;;;4984908;28;20515;-74
2022/06/23 10:50:02;;;;;;;0.00;0.00;;;30.20;63.10;;;;;;4989174;28;20034;-75
2022/06/23 10:53:10;;;;;;;0.00;0.00;;;29.60;64.00;;;;;;4991178;28;20093;-73
2022/06/23 10:55:57;;;;;;;0.05;0.05;;;29.90;64.90;;;;;;4991665;28;20125;-74
2022/06/23 10:58:42;;;;;;;0.00;0.00;;;30.40;63.10;;;;;;4967771;28;20050;-74
2022/06/23 11:01:49;;;;;;;0.32;0.32;;;30.10;65.80;;;;;;4973230;28;20479;-74
2022/06/23 11:04:48;;;;;;;0.00;0.00;;;29.60;65.80;;;;;;4971121;28;20373;-74
2022/06/23 11:07:41;;;;;;;0.80;0.80;;;29.70;65.40;;;;;;4968216;28;20096;-73
2022/06/23 11:10:22;;;;;;;0.00;0.00;;;30.00;64.50;;;;;;4964776;28;20027;-75
2022/06/23 11:13:12;;;;;;;0.00;0.00;;;30.10;63.80;;;;;;4968511;28;20078;-75
2022/06/23 11:15:51;;;;;;;0.00;0.00;;;30.30;62.90;;;;;;4972486;28;20031;-73
2022/06/23 11:18:30;;;;;;;0.00;0.00;;;30.40;62.50;;;;;;4969031;28;20428;-74
2022/06/23 11:21:20;;;;;;;0.00;0.00;;;30.60;61.60;;;;;;4966044;28;20477;-76
2022/06/23 11:23:59;;;;;;;0.00;0.00;;;30.60;61.80;;;;;;4974233;28;20023;-74
2022/06/23 11:26:58;;;;;;;0.00;0.00;;;30.40;61.90;;;;;;4967972;28;20046;-74
2022/06/23 11:29:57;;;;;;;0.00;0.00;;;29.80;64.70;;;;;;4968153;28;20046;-73
2022/06/23 11:32:52;;;;;;;0.00;0.00;;;29.40;67.20;;;;;;4968990;28;20413;-72
2022/06/23 11:35:37;;;;;;;0.00;0.00;;;29.60;64.80;;;;;;4955926;28;20022;-75
2022/06/23 11:38:44;;;;;;;0.00;0.00;;;29.80;64.40;;;;;;4969776;28;20027;-74
2022/06/23 11:41:22;;;;;;;0.10;0.10;;;29.80;79.00;;;;;;4966206;28;20034;-74
2022/06/23 11:44:09;;;;;;;0.00;0.00;;;29.70;77.30;;;;;;4966738;28;20014;-74
2022/06/23 11:46:46;;;;;;;0.00;0.00;;;29.60;74.70;;;;;;4963758;28;20235;-75
2022/06/23 11:49:24;;;;;;;0.00;0.00;;;29.40;79.30;;;;;;4962360;28;20031;-75
2022/06/23 11:52:06;;;;;;;0.00;0.00;;;29.30;74.70;;;;;;4961458;28;20039;-75
2022/06/23 11:54:38;;;;;;;0.00;0.00;;;28.80;73.60;;;;;;4964450;28;20567;-74
2022/06/23 11:57:33;;;;;;;0.00;0.00;;;28.30;79.10;;;;;;4966322;28;20488;-73
2022/06/23 12:00:13;;;;;;;0.00;0.00;;;28.20;82.30;;;;;;4968893;28;20037;-75
2022/06/23 12:03:30;;;;;;;0.00;0.00;;;27.70;89.30;;;;;;4972104;28;20023;-73
2022/06/23 12:06:02;;;;;;;0.00;0.00;;;27.30;99.90;;;;;;4967623;28;20042;-73
2022/06/23 12:08:53;;;;;;;0.63;0.63;;;27.00;99.90;;;;;;4965959;28;20027;-74
2022/06/23 12:11:20;;;;;;;8.82;2.38;;;27.20;99.90;;;;;;4970283;28;20030;-73
2022/06/23 12:13:47;;;;;;;0.65;0.65;;;27.10;99.90;;;;;;4971859;28;20081;-73
2022/06/23 12:16:13;;;;;;;6.55;1.08;;;27.00;99.90;;;;;;4970602;28;20034;-75
2022/06/23 12:18:54;;;;;;;0.00;0.00;;;27.00;99.90;;;;;;4974599;28;20030;-73
2022/06/23 12:21:39;;;;;;;0.10;0.10;;;27.10;99.90;;;;;;4968770;28;20334;-73
2022/06/23 12:24:11;;;;;;;0.00;0.00;;;27.00;99.90;;;;;;4965809;28;20409;-75
2022/06/23 12:26:51;;;;;;;0.00;0.00;;;27.10;99.90;;;;;;4967571;28;20114;-75
2022/06/23 12:29:25;;;;;;;0.00;0.00;;;27.30;99.90;;;;;;4972152;28;20023;-76
2022/06/23 12:32:00;;;;;;;0.32;0.32;;;27.60;99.90;;;;;;4969989;28;20093;-73
2022/06/23 12:34:44;;;;;;;0.00;0.00;;;27.80;99.90;;;;;;4968467;28;20038;-73
2022/06/23 12:37:15;;;;;;;0.10;0.10;;;27.90;99.90;;;;;;4970930;28;20034;-72
2022/06/23 12:40:03;;;;;;;0.03;0.03;;;27.90;99.90;;;;;;4971826;28;20058;-73
2022/06/23 12:42:52;;;;;;;0.28;0.28;;;27.90;99.90;;;;;;4960827;28;20027;-72
2022/06/23 12:45:21;;;;;;;0.00;0.00;;;28.00;99.90;;;;;;4964629;28;20101;-74
2022/06/23 12:48:08;;;;;;;0.03;0.03;;;27.90;99.90;;;;;;4966414;28;20500;-74
2022/06/23 12:50:58;;;;;;;4.95;0.30;;;27.90;99.90;;;;;;4973237;28;21781;-75
2022/06/23 12:53:27;;;;;;;2.17;2.00;;;27.90;99.90;;;;;;4970033;28;20036;-73
2022/06/23 12:55:53;;;;;;;0.38;0.38;;;28.00;99.90;;;;;;4971455;28;20078;-73
2022/06/23 12:58:36;;;;;;;0.00;0.00;;;28.10;99.90;;;;;;4971964;28;20370;-76
2022/06/23 13:01:28;;;;;;;0.00;0.00;;;27.70;99.90;;;;;;4974040;28;20520;-74
2022/06/23 13:04:08;;;;;;;1.10;1.05;;;27.50;99.90;;;;;;4973088;28;20065;-73
2022/06/23 13:06:46;;;;;;;0.03;0.03;;;27.60;99.90;;;;;;4971643;28;20085;-73
2022/06/23 13:09:56;;;;;;;0.00;0.00;;;27.80;99.90;;;;;;4971399;28;20066;-72
2022/06/23 13:12:40;;;;;;;0.17;0.17;;;27.60;99.90;;;;;;4916395;29;20040;-73
2022/06/23 13:15:31;;;;;;;0.00;0.00;;;27.60;99.90;;;;;;4916985;29;20175;-74
2022/06/23 13:18:41;;;;;;;0.00;0.00;;;27.50;99.90;;;;;;4958508;28;20497;-73
2022/06/23 13:21:30;;;;;;;0.00;0.00;;;27.70;99.90;;;;;;4895827;29;20518;-73
2022/06/23 13:24:08;;;;;;;0.00;0.00;;;27.50;99.90;;;;;;4966207;28;20046;-74
2022/06/23 13:26:38;;;;;;;0.00;0.00;;;27.80;99.90;;;;;;4970362;28;20034;-73
2022/06/23 13:29:22;;;;;;;0.00;0.00;;;27.60;99.90;;;;;;4971731;28;20450;-73
2022/06/23 13:32:18;;;;;;;0.00;0.00;;;27.60;99.90;;;;;;4974656;28;20034;-73
2022/06/23 13:35:05;;;;;;;6.35;2.55;;;27.80;99.90;;;;;;4974300;28;20033;-73
2022/06/23 13:37:39;;;;;;;6.18;2.78;;;27.60;99.90;;;;;;4961420;28;20326;-73
2022/06/23 13:40:14;;;;;;;2.90;0.95;;;26.70;96.80;;;;;;4972540;28;20030;-74
2022/06/23 13:43:14;;;;;;;0.43;0.43;;;26.10;98.60;;;;;;4971241;28;20075;-74
2022/06/23 13:45:50;;;;;;;0.85;0.35;;;25.70;99.70;;;;;;4949837;28;20070;-74
2022/06/23 13:48:31;;;;;;;0.20;0.20;;;25.90;99.90;;;;;;4970903;28;20477;-73
2022/06/23 13:51:20;;;;;;;22.00;2.15;;;25.60;99.90;;;;;;4971184;28;20549;-73
2022/06/23 13:53:58;;;;;;;0.10;0.10;;;25.30;99.90;;;;;;4966618;28;20114;-74
2022/06/23 13:56:36;;;;;;;1.58;0.77;;;25.10;99.90;;;;;;4975897;28;20042;-73
2022/06/23 13:59:14;;;;;;;0.63;0.28;;;25.00;99.90;;;;;;4967132;28;20496;-74
2022/06/23 14:01:50;;;;;;;0.00;0.00;;;24.70;99.90;;;;;;4969873;28;20381;-73
2022/06/23 14:04:23;;;;;;;0.90;0.50;;;24.60;99.90;;;;;;4971389;28;20363;-73
2022/06/23 14:07:04;;;;;;;4.57;0.85;;;24.70;99.90;;;;;;4972582;28;20038;-73
2022/06/23 14:09:39;;;;;;;0.47;0.15;;;24.70;99.90;;;;;;4968828;28;20019;-74